Terminal Aerodrome Forecast
Issued by NWS Pocatello, ID

Home | Current Version | Previous Version | Text Only | Print | Product List | Glossary On
Versions: 1 2 3 4 5 6 7 8 9 10 11 12 13 14
000
FTUS45 KPIH 031720
TAFIDA
TAF
KIDA 031720Z 0318/0418 22008KT P6SM VCTS SCT060CB BKN100
     FM032000 22013G23KT P6SM VCTS SCT060CB BKN100
     FM040300 21008KT P6SM FEW120=

USA.gov is the U.S. government's official web portal to all federal, state and local government web resources and services.